首页
METAR-TAF:

METAR-TAF

机场 :

迪拜国际机场

杜拜, 阿拉伯联合酋长国

纬度: 25-15-10N, 经度: 055-21-52E, 海拔: 8米

当前天气观测

该预报发布于1小时和4分钟前的08:00 UTC
风速4节,风向多变
温度 36°C
湿度 29%
气压 1014 hPa
能见度10公里或以上
1500米以下无云,无积雨云

METAR: OMDB 170800Z VRB04KT CAVOK 36/15 Q1014 BECMG 32010KT

时间: 13:04 (09:04 UTC)

预报

该预报发布于4小时和7分钟前的04:57 UTC
预报有效从17日的 06点(UTC)到 18日的 12点(UTC)
风速8节,风向
能見度: 7000
成为
从 17日的 08点(UTC)到 17日的 10点(UTC)
风速10节,风向北转西北
成为
从 17日的 17点(UTC)到 17日的 19点(UTC)
风速5节,风向东南
几率 30%
从 17日的 22点(UTC)到 18日的 00点(UTC)
能見度: 4000
几率 30%
从 18日的 00点(UTC)到 18日的 04点(UTC)
能見度: 1500
多云层高于500英尺
轻雾
成为
从 18日的 08点(UTC)到 18日的 10点(UTC)
风速12节,风向北转西北

TAF: OMDB 170457Z 1706/1812 18008KT 7000 NSC BECMG 1708/1710 33010KT BECMG 1717/1719 13005KT PROB30 1722/1800 4000 HZ PROB30 1800/1804 1500 BR BKN005 BECMG 1808/1810 33012KT

超过4000个机场的气象观测和天气预报(METAR&TAF报告)。

可查询的气象台以黄色和红色小点在地图上表示。

将鼠标移到小点上方,可查看气象台名称。

然后点击查看天气观测和预报。

如需切换地图:点击带黑十字的绿色按钮放大地图;点击带横线的绿色按钮缩小地图;或者点击绿色箭头查看邻近地区的地图。


METAR-TAF: